Time;durP1;ratioP1;P1;durP2;ratioP2;P2;SDS_P1;SDS_P2;PMS_P1;PMS_P2;Temp;Humidity;BMP_temperature;BMP_pressure;BME280_temperature;BME280_humidity;BME280_pressure;Samples;Min_cycle;Max_cycle;Signal;HPM_P1;HPM_P2
2024/01/19 00:00:55;;;;;;;7.83;5.90;;;-2.40;99.90;;;;;;5046898;28;20253;-71
2024/01/19 00:03:22;;;;;;;8.43;5.57;;;-2.30;99.90;;;;;;5046067;28;21064;-71
2024/01/19 00:05:49;;;;;;;8.80;6.00;;;-2.40;99.90;;;;;;5046429;28;20804;-72
2024/01/19 00:08:16;;;;;;;6.00;5.40;;;-2.50;99.90;;;;;;5046398;28;21019;-70
2024/01/19 00:10:44;;;;;;;7.30;5.83;;;-2.40;99.90;;;;;;5046687;28;20648;-71
2024/01/19 00:13:11;;;;;;;8.70;5.77;;;-2.40;99.90;;;;;;5046620;28;20478;-71
2024/01/19 00:15:38;;;;;;;7.00;5.20;;;-2.30;99.90;;;;;;5046547;28;20330;-71
2024/01/19 00:18:05;;;;;;;8.27;5.40;;;-2.20;99.90;;;;;;5046410;28;20210;-71
2024/01/19 00:20:32;;;;;;;7.17;5.50;;;-2.20;99.90;;;;;;5045708;28;20266;-70
2024/01/19 00:22:59;;;;;;;6.17;5.33;;;-2.20;99.90;;;;;;5045103;28;20310;-72
2024/01/19 00:25:26;;;;;;;8.40;5.43;;;-2.30;99.90;;;;;;5046490;28;20295;-71
2024/01/19 00:27:54;;;;;;;6.83;5.63;;;-2.20;99.90;;;;;;5046236;28;20227;-71
2024/01/19 00:30:21;;;;;;;7.73;5.57;;;-2.20;99.90;;;;;;5046607;28;20619;-70
2024/01/19 00:32:48;;;;;;;6.00;5.40;;;-2.20;99.90;;;;;;5046260;28;20282;-71
2024/01/19 00:35:15;;;;;;;8.07;5.47;;;-2.20;99.90;;;;;;5044739;28;20329;-72
2024/01/19 00:37:42;;;;;;;7.53;5.10;;;-2.30;99.90;;;;;;5048833;28;20265;-72
2024/01/19 00:40:11;;;;;;;7.37;5.67;;;-2.30;99.90;;;;;;5040727;28;20748;-72
2024/01/19 00:42:39;;;;;;;7.87;5.37;;;-2.30;99.90;;;;;;5047484;28;20720;-72
2024/01/19 00:45:09;;;;;;;7.67;5.47;;;-2.30;99.90;;;;;;5047816;28;20235;-72
2024/01/19 00:47:36;;;;;;;6.27;5.57;;;-2.40;99.90;;;;;;5045849;28;20226;-72
2024/01/19 00:50:04;;;;;;;6.20;5.37;;;-2.40;99.90;;;;;;5033817;28;20298;-72
2024/01/19 00:52:31;;;;;;;6.10;5.43;;;-2.40;99.90;;;;;;5026414;28;20294;-72
2024/01/19 00:54:58;;;;;;;6.53;5.47;;;-2.30;99.90;;;;;;5044297;28;20322;-72
2024/01/19 00:57:25;;;;;;;8.80;5.57;;;-2.30;99.90;;;;;;5046308;28;20681;-72
2024/01/19 00:59:52;;;;;;;8.03;5.20;;;-2.30;99.90;;;;;;5045650;28;20776;-72
2024/01/19 01:02:20;;;;;;;9.03;6.20;;;-2.30;99.90;;;;;;5048307;28;20215;-72
2024/01/19 01:04:47;;;;;;;7.87;5.37;;;-2.40;99.90;;;;;;5049622;28;20336;-71
2024/01/19 01:07:14;;;;;;;4.97;4.50;;;-2.50;99.90;;;;;;5049603;28;20211;-72
2024/01/19 01:09:41;;;;;;;5.87;5.27;;;-2.60;99.90;;;;;;5049483;28;20303;-72
2024/01/19 01:12:08;;;;;;;6.47;5.70;;;-2.60;99.90;;;;;;5049653;28;20303;-72
2024/01/19 01:14:35;;;;;;;7.50;5.80;;;-2.60;99.90;;;;;;5049724;28;20224;-71
2024/01/19 01:17:02;;;;;;;7.90;5.63;;;-2.70;99.90;;;;;;5049210;28;20579;-70
2024/01/19 01:19:31;;;;;;;6.20;5.47;;;-2.70;99.90;;;;;;5049398;28;20295;-70
2024/01/19 01:21:58;;;;;;;7.23;5.40;;;-2.70;99.90;;;;;;5049189;28;20210;-70
2024/01/19 01:24:25;;;;;;;6.03;5.13;;;-2.70;99.90;;;;;;5049030;28;20686;-70
2024/01/19 01:26:52;;;;;;;8.00;5.60;;;-2.80;99.90;;;;;;5049226;28;20630;-70
2024/01/19 01:29:19;;;;;;;7.07;5.40;;;-2.70;99.90;;;;;;5048943;28;20673;-70
2024/01/19 01:31:48;;;;;;;7.03;6.17;;;-2.80;99.90;;;;;;5049307;28;20294;-70
2024/01/19 01:34:14;;;;;;;6.67;5.40;;;-2.80;99.90;;;;;;5048740;28;20219;-70
2024/01/19 01:36:43;;;;;;;6.20;5.13;;;-2.80;99.90;;;;;;5048235;28;20838;-70
2024/01/19 01:39:11;;;;;;;6.90;5.50;;;-2.80;99.90;;;;;;5048828;28;20246;-70
2024/01/19 01:41:41;;;;;;;6.27;5.60;;;-2.80;99.90;;;;;;5048421;28;20796;-70
2024/01/19 01:44:07;;;;;;;7.00;5.57;;;-2.70;99.90;;;;;;5047921;28;20203;-70
2024/01/19 01:46:34;;;;;;;6.63;5.73;;;-2.70;99.90;;;;;;5028927;28;20553;-70
2024/01/19 01:49:01;;;;;;;6.77;5.73;;;-2.60;99.90;;;;;;5028806;28;20239;-70
2024/01/19 01:51:29;;;;;;;6.03;5.07;;;-2.60;99.90;;;;;;5028823;28;20286;-70
2024/01/19 01:53:58;;;;;;;5.97;5.37;;;-2.60;99.90;;;;;;5035514;28;20225;-70
2024/01/19 01:56:27;;;;;;;7.00;5.80;;;-2.60;99.90;;;;;;5048232;28;20682;-70
2024/01/19 01:58:54;;;;;;;6.43;5.17;;;-2.60;99.90;;;;;;5048328;28;20234;-70
2024/01/19 02:01:21;;;;;;;7.20;5.40;;;-2.60;99.90;;;;;;5048522;28;20291;-69
2024/01/19 02:03:50;;;;;;;7.10;5.20;;;-2.60;99.90;;;;;;5048417;28;20317;-70
2024/01/19 02:06:17;;;;;;;6.17;4.97;;;-2.60;99.90;;;;;;5048725;28;20290;-71
2024/01/19 02:08:44;;;;;;;8.00;5.40;;;-2.60;99.90;;;;;;5048136;28;20211;-70
2024/01/19 02:11:13;;;;;;;7.33;5.47;;;-2.70;99.90;;;;;;5047940;28;20287;-71
2024/01/19 02:13:40;;;;;;;8.80;4.97;;;-2.60;99.90;;;;;;5047918;28;20294;-69
2024/01/19 02:16:07;;;;;;;8.10;5.80;;;-2.60;99.90;;;;;;5048170;28;21156;-71
2024/01/19 02:18:33;;;;;;;7.23;5.80;;;-2.60;99.90;;;;;;5048223;28;20211;-70
2024/01/19 02:21:00;;;;;;;5.83;5.20;;;-2.50;99.90;;;;;;5047531;28;20245;-71
2024/01/19 02:23:30;;;;;;;7.33;5.60;;;-2.40;99.90;;;;;;5048036;28;20235;-70
2024/01/19 02:25:58;;;;;;;6.40;5.00;;;-2.40;99.90;;;;;;5048002;28;20201;-70
2024/01/19 02:28:25;;;;;;;6.30;4.70;;;-2.30;99.90;;;;;;5047842;28;20590;-70
2024/01/19 02:30:52;;;;;;;7.23;5.30;;;-2.30;99.90;;;;;;5047459;28;20300;-70
2024/01/19 02:33:19;;;;;;;5.20;4.70;;;-2.40;99.90;;;;;;5047826;28;20294;-69
2024/01/19 02:35:46;;;;;;;7.17;5.33;;;-2.40;99.90;;;;;;5047613;28;20329;-69
2024/01/19 02:38:13;;;;;;;5.53;4.83;;;-2.30;99.90;;;;;;5047276;28;20873;-69
2024/01/19 02:40:40;;;;;;;4.87;4.37;;;-2.30;99.90;;;;;;5047859;28;20328;-69
2024/01/19 02:43:08;;;;;;;6.37;4.63;;;-2.40;99.90;;;;;;5048056;28;20290;-69
2024/01/19 02:45:35;;;;;;;6.10;4.90;;;-2.40;99.90;;;;;;5047786;28;20298;-69
2024/01/19 02:48:02;;;;;;;5.27;4.33;;;-2.40;99.90;;;;;;5047720;28;20293;-69
2024/01/19 02:50:29;;;;;;;5.33;4.80;;;-2.50;99.90;;;;;;5047262;28;20246;-69
2024/01/19 02:52:56;;;;;;;4.87;4.20;;;-2.50;99.90;;;;;;5046968;28;20251;-69
2024/01/19 02:55:23;;;;;;;5.27;4.43;;;-2.50;99.90;;;;;;5047394;28;20568;-69
2024/01/19 02:57:50;;;;;;;6.83;4.53;;;-2.50;99.90;;;;;;5047857;28;20294;-69
2024/01/19 03:00:18;;;;;;;8.97;4.03;;;-2.50;99.90;;;;;;5047420;28;20227;-69
2024/01/19 03:02:45;;;;;;;5.73;3.87;;;-2.60;99.90;;;;;;5047703;28;20302;-69
2024/01/19 03:05:12;;;;;;;6.43;3.57;;;-2.60;99.90;;;;;;5046893;28;20246;-69
2024/01/19 03:07:39;;;;;;;6.07;3.83;;;-2.60;99.90;;;;;;5047249;28;20235;-69
2024/01/19 03:10:07;;;;;;;3.90;3.47;;;-2.70;99.90;;;;;;5047027;28;20211;-69
2024/01/19 03:12:34;;;;;;;5.67;3.73;;;-2.70;99.90;;;;;;5047176;28;20275;-69
2024/01/19 03:15:01;;;;;;;3.53;3.23;;;-2.70;99.90;;;;;;5046963;28;20224;-70
2024/01/19 03:17:29;;;;;;;6.53;3.97;;;-2.70;99.90;;;;;;5047092;28;20288;-70
2024/01/19 03:19:55;;;;;;;4.27;3.27;;;-2.70;99.90;;;;;;5046485;28;20281;-70
2024/01/19 03:22:22;;;;;;;4.47;2.90;;;-2.60;99.90;;;;;;5047331;28;20215;-70
2024/01/19 03:24:48;;;;;;;3.60;3.00;;;-2.60;99.90;;;;;;5046963;28;20303;-70
2024/01/19 03:27:15;;;;;;;4.50;3.40;;;-2.50;99.90;;;;;;5047325;28;20211;-70
2024/01/19 03:29:43;;;;;;;4.70;3.00;;;-2.60;99.90;;;;;;5047037;28;20288;-69
2024/01/19 03:32:10;;;;;;;4.00;3.60;;;-2.50;99.90;;;;;;5046623;28;20202;-69
2024/01/19 03:34:38;;;;;;;5.73;3.67;;;-2.40;99.90;;;;;;5046825;28;20291;-69
2024/01/19 03:37:05;;;;;;;4.73;3.40;;;-2.50;99.90;;;;;;5046809;28;20299;-69
2024/01/19 03:39:32;;;;;;;4.17;3.17;;;-2.50;99.90;;;;;;5046626;28;20742;-69
2024/01/19 03:41:59;;;;;;;3.90;3.17;;;-2.40;99.90;;;;;;5046639;28;20207;-69
2024/01/19 03:44:26;;;;;;;4.40;3.13;;;-2.50;99.90;;;;;;5046459;28;20203;-69
2024/01/19 03:46:54;;;;;;;3.83;3.10;;;-2.50;99.90;;;;;;5046417;28;20571;-69
2024/01/19 03:49:21;;;;;;;5.23;3.40;;;-2.50;99.90;;;;;;5046502;28;20218;-69
2024/01/19 03:51:59;;;;;;;6.30;3.50;;;-2.50;99.90;;;;;;5046542;28;20204;-69
2024/01/19 03:54:26;;;;;;;3.00;2.80;;;-2.50;99.90;;;;;;5046652;28;20570;-68
2024/01/19 03:56:54;;;;;;;4.60;3.10;;;-2.50;99.90;;;;;;5046437;28;20233;-69
2024/01/19 03:59:20;;;;;;;7.27;3.53;;;-2.50;99.90;;;;;;5046464;28;20607;-69
2024/01/19 04:01:47;;;;;;;4.57;3.10;;;-2.40;99.90;;;;;;5046313;28;20189;-69
2024/01/19 04:04:14;;;;;;;5.87;3.33;;;-2.40;99.90;;;;;;5045992;28;20322;-69
2024/01/19 04:06:41;;;;;;;4.73;3.13;;;-2.40;99.90;;;;;;5048743;28;20942;-69
2024/01/19 04:09:09;;;;;;;4.07;3.20;;;-2.30;99.90;;;;;;5059633;28;20217;-69
2024/01/19 04:11:37;;;;;;;3.77;2.93;;;-2.30;99.90;;;;;;5046225;28;20288;-69
2024/01/19 04:14:04;;;;;;;3.63;2.90;;;-2.30;99.90;;;;;;5046454;28;20214;-69
2024/01/19 04:16:31;;;;;;;5.37;3.60;;;-2.30;99.90;;;;;;5046284;28;20273;-69
2024/01/19 04:18:57;;;;;;;6.07;3.30;;;-2.20;99.90;;;;;;5045876;28;20242;-69
2024/01/19 04:21:24;;;;;;;2.97;2.73;;;-2.20;99.90;;;;;;5046276;28;20224;-69
2024/01/19 04:23:51;;;;;;;3.50;3.10;;;-2.20;99.90;;;;;;5046497;28;20238;-69
2024/01/19 04:26:19;;;;;;;4.13;3.00;;;-2.20;99.90;;;;;;5046257;28;20296;-69
2024/01/19 04:28:46;;;;;;;5.10;3.17;;;-2.20;99.90;;;;;;5044592;28;20626;-69
2024/01/19 04:31:12;;;;;;;4.40;3.17;;;-2.20;99.90;;;;;;5044575;28;20214;-69
2024/01/19 04:33:39;;;;;;;4.63;3.13;;;-2.20;99.90;;;;;;5044813;28;20211;-69
2024/01/19 04:36:06;;;;;;;3.50;3.10;;;-2.20;99.90;;;;;;5044419;28;20230;-69
2024/01/19 04:38:33;;;;;;;5.47;3.43;;;-2.20;99.90;;;;;;5048201;28;20217;-69
2024/01/19 04:41:00;;;;;;;5.40;2.97;;;-2.20;99.90;;;;;;5047411;28;20210;-69
2024/01/19 04:43:29;;;;;;;3.90;3.17;;;-2.20;99.90;;;;;;5047410;28;20208;-69
2024/01/19 04:45:56;;;;;;;2.97;2.73;;;-2.20;99.90;;;;;;5047441;28;20282;-69
2024/01/19 04:48:23;;;;;;;3.93;2.93;;;-2.20;99.90;;;;;;5047798;28;20213;-69
2024/01/19 04:50:50;;;;;;;6.23;3.10;;;-2.20;99.90;;;;;;5047896;28;20315;-69
2024/01/19 04:53:17;;;;;;;2.83;2.50;;;-2.20;99.90;;;;;;5047284;28;20322;-69
2024/01/19 04:55:43;;;;;;;3.10;2.80;;;-2.20;99.90;;;;;;5047456;28;20728;-69
2024/01/19 04:58:10;;;;;;;3.13;2.67;;;-2.20;99.90;;;;;;5047422;28;20208;-69
2024/01/19 05:00:39;;;;;;;3.43;2.10;;;-2.20;99.90;;;;;;5046970;28;20258;-69
2024/01/19 05:03:06;;;;;;;3.17;2.83;;;-2.20;99.90;;;;;;5048515;28;20566;-69
2024/01/19 05:05:33;;;;;;;3.30;2.40;;;-2.20;99.90;;;;;;5047586;28;20229;-69
2024/01/19 05:08:00;;;;;;;3.77;2.10;;;-2.10;99.90;;;;;;5034098;28;20240;-69
2024/01/19 05:10:27;;;;;;;2.60;2.40;;;-2.20;99.90;;;;;;5047657;28;20643;-69
2024/01/19 05:12:54;;;;;;;5.23;2.50;;;-2.10;99.90;;;;;;5048060;28;20590;-69
2024/01/19 05:15:21;;;;;;;2.27;2.07;;;-2.10;99.90;;;;;;5042741;28;20287;-69
2024/01/19 05:17:49;;;;;;;2.57;2.13;;;-2.10;99.90;;;;;;5048285;28;20290;-69
2024/01/19 05:20:18;;;;;;;3.00;2.00;;;-2.10;99.90;;;;;;5048027;28;20211;-69
2024/01/19 05:22:45;;;;;;;2.97;2.40;;;-2.00;99.90;;;;;;5047935;28;20232;-69
2024/01/19 05:25:12;;;;;;;2.50;2.30;;;-2.00;99.90;;;;;;5047839;28;20203;-69
2024/01/19 05:27:38;;;;;;;3.43;2.30;;;-2.00;99.90;;;;;;5045024;28;20285;-69
2024/01/19 05:30:07;;;;;;;1.67;1.57;;;-2.00;99.90;;;;;;5047780;28;20295;-69
2024/01/19 05:32:35;;;;;;;3.30;2.17;;;-2.00;99.90;;;;;;5044923;28;20288;-69
2024/01/19 05:35:03;;;;;;;2.60;1.90;;;-2.00;99.90;;;;;;5047483;28;20207;-69
2024/01/19 05:37:30;;;;;;;2.33;1.77;;;-2.00;99.90;;;;;;5047110;28;20315;-69
2024/01/19 05:39:57;;;;;;;1.87;1.77;;;-2.00;99.90;;;;;;5046684;28;20290;-69
2024/01/19 05:42:24;;;;;;;3.50;2.07;;;-1.90;99.90;;;;;;5046314;28;20209;-69
2024/01/19 05:44:51;;;;;;;2.30;2.07;;;-1.90;99.90;;;;;;5047340;28;20207;-69
2024/01/19 05:47:17;;;;;;;4.40;2.03;;;-1.90;99.90;;;;;;5046771;28;20292;-69
2024/01/19 05:49:44;;;;;;;3.70;1.90;;;-1.90;99.90;;;;;;5047031;28;20290;-69
2024/01/19 05:52:13;;;;;;;2.70;1.80;;;-2.00;99.90;;;;;;5047091;28;20229;-69
2024/01/19 05:54:40;;;;;;;1.90;1.70;;;-1.90;99.90;;;;;;5047760;28;20626;-69
2024/01/19 05:57:09;;;;;;;4.03;2.17;;;-1.80;99.90;;;;;;5047264;28;20247;-69
2024/01/19 05:59:38;;;;;;;3.60;2.00;;;-1.80;99.90;;;;;;5047176;28;20212;-69
2024/01/19 06:02:05;;;;;;;3.47;1.60;;;-1.80;99.90;;;;;;5047069;28;20208;-69
2024/01/19 06:04:33;;;;;;;2.67;1.87;;;-1.80;99.90;;;;;;5047048;28;20230;-69
2024/01/19 06:07:00;;;;;;;2.27;1.70;;;-1.80;99.90;;;;;;5046167;28;20207;-69
2024/01/19 06:09:28;;;;;;;1.80;1.60;;;-1.80;99.90;;;;;;5044807;28;20294;-69
2024/01/19 06:11:55;;;;;;;2.20;1.73;;;-1.70;99.90;;;;;;5047582;28;20199;-69
2024/01/19 06:14:21;;;;;;;4.50;1.77;;;-1.70;99.90;;;;;;5047332;28;20632;-69
2024/01/19 06:16:48;;;;;;;4.53;1.70;;;-1.70;99.90;;;;;;5046775;28;20588;-69
2024/01/19 06:19:15;;;;;;;4.17;1.70;;;-1.70;99.90;;;;;;5047342;28;20614;-69
2024/01/19 06:21:45;;;;;;;5.27;1.70;;;-1.60;99.90;;;;;;5046454;28;20201;-69
2024/01/19 06:24:14;;;;;;;5.23;1.80;;;-1.60;99.90;;;;;;5046817;28;20748;-69
2024/01/19 06:26:45;;;;;;;1.80;1.70;;;-1.60;99.90;;;;;;5046840;28;20217;-69
2024/01/19 06:29:12;;;;;;;2.20;1.60;;;-1.60;99.90;;;;;;5046879;28;20320;-69
2024/01/19 06:31:44;;;;;;;5.23;2.13;;;-1.60;99.90;;;;;;5046650;28;20687;-69
2024/01/19 06:34:11;;;;;;;2.60;1.50;;;-1.50;99.90;;;;;;5046191;28;20288;-69
2024/01/19 06:36:38;;;;;;;3.50;2.00;;;-1.50;99.90;;;;;;5046273;28;20242;-69
2024/01/19 06:39:07;;;;;;;3.90;2.70;;;-1.50;99.90;;;;;;5046442;28;20744;-70
2024/01/19 06:41:34;;;;;;;2.67;2.30;;;-1.40;99.90;;;;;;5046783;28;20209;-69
2024/01/19 06:44:02;;;;;;;12.37;7.00;;;-1.40;99.90;;;;;;5043586;28;20204;-69
2024/01/19 06:46:29;;;;;;;4.00;2.53;;;-1.40;99.90;;;;;;5046632;28;20208;-70
2024/01/19 06:48:56;;;;;;;8.33;4.87;;;-1.40;99.90;;;;;;5046453;28;20241;-69
2024/01/19 06:51:24;;;;;;;2.27;1.90;;;-1.40;99.90;;;;;;5046345;28;20234;-69
2024/01/19 06:53:52;;;;;;;2.40;2.20;;;-1.40;99.90;;;;;;5046255;28;20275;-69
2024/01/19 06:56:19;;;;;;;7.03;4.53;;;-1.40;99.90;;;;;;5046346;28;20215;-69
2024/01/19 06:58:45;;;;;;;11.13;5.53;;;-1.40;99.90;;;;;;5044573;28;20296;-69
2024/01/19 07:01:14;;;;;;;7.27;4.10;;;-1.40;99.90;;;;;;5045038;28;20242;-69
2024/01/19 07:03:41;;;;;;;10.57;6.27;;;-1.40;99.90;;;;;;5045975;28;20670;-69
2024/01/19 07:06:08;;;;;;;2.80;2.10;;;-1.40;99.90;;;;;;5046491;28;20258;-69
2024/01/19 07:08:34;;;;;;;4.93;2.57;;;-1.30;99.90;;;;;;5046215;28;20285;-69
2024/01/19 07:11:02;;;;;;;6.53;2.63;;;-1.30;99.90;;;;;;5046339;28;20298;-69
2024/01/19 07:13:29;;;;;;;1.93;1.80;;;-1.30;99.90;;;;;;5046125;28;20643;-69
2024/01/19 07:15:55;;;;;;;3.47;2.03;;;-1.30;99.90;;;;;;5046085;28;20211;-69
2024/01/19 07:18:24;;;;;;;2.17;1.80;;;-1.30;99.90;;;;;;5045760;28;20662;-69
2024/01/19 07:20:51;;;;;;;3.33;1.90;;;-1.30;99.90;;;;;;5045965;28;20232;-69
2024/01/19 07:23:17;;;;;;;2.53;2.10;;;-1.30;99.90;;;;;;5046180;28;20233;-68
2024/01/19 07:25:44;;;;;;;3.37;2.00;;;-1.30;99.90;;;;;;5046152;28;20280;-67
2024/01/19 07:28:12;;;;;;;2.73;2.00;;;-1.30;99.90;;;;;;5046106;28;20219;-68
2024/01/19 07:30:39;;;;;;;2.67;2.17;;;-1.30;99.90;;;;;;5045523;28;20198;-67
2024/01/19 07:33:06;;;;;;;3.03;1.90;;;-1.30;99.90;;;;;;5045457;28;20214;-68
2024/01/19 07:35:34;;;;;;;3.07;2.10;;;-1.20;99.90;;;;;;5045947;28;20239;-67
2024/01/19 07:38:01;;;;;;;4.97;2.10;;;-1.20;99.90;;;;;;5045518;28;20314;-67
2024/01/19 07:40:28;;;;;;;2.73;2.43;;;-1.20;99.90;;;;;;5045030;28;20295;-68
2024/01/19 07:42:55;;;;;;;3.60;2.27;;;-1.20;99.90;;;;;;5045449;28;20297;-68
2024/01/19 07:45:22;;;;;;;3.73;2.13;;;-1.10;99.90;;;;;;5042877;28;20197;-67
2024/01/19 07:47:49;;;;;;;2.90;2.63;;;-1.10;99.90;;;;;;5045309;28;20283;-68
2024/01/19 07:50:15;;;;;;;2.97;2.30;;;-1.10;99.90;;;;;;5045026;28;20205;-69
2024/01/19 07:52:44;;;;;;;2.87;2.67;;;-1.00;99.90;;;;;;5045129;28;20226;-68
2024/01/19 07:55:11;;;;;;;3.50;2.60;;;-1.00;99.90;;;;;;5044791;28;20210;-68
2024/01/19 07:57:38;;;;;;;3.07;2.10;;;-1.00;99.90;;;;;;5045028;28;20231;-68
2024/01/19 08:00:06;;;;;;;3.43;2.37;;;-0.90;99.90;;;;;;5043226;28;20193;-68
2024/01/19 08:02:33;;;;;;;3.67;2.50;;;-0.90;99.90;;;;;;5037064;28;20309;-67
2024/01/19 08:05:00;;;;;;;3.27;2.50;;;-0.80;99.90;;;;;;5043303;28;20235;-68
2024/01/19 08:07:30;;;;;;;2.73;2.50;;;-0.80;99.90;;;;;;5042746;28;20300;-67
2024/01/19 08:09:58;;;;;;;3.67;2.93;;;-0.70;99.90;;;;;;5043134;28;20211;-67
2024/01/19 08:12:25;;;;;;;2.90;2.70;;;-0.70;99.90;;;;;;5042364;28;20214;-68
2024/01/19 08:14:52;;;;;;;3.73;2.60;;;-0.60;99.90;;;;;;5049281;28;20225;-67
2024/01/19 08:17:19;;;;;;;5.40;2.70;;;-0.60;99.90;;;;;;5048835;28;20235;-68
2024/01/19 08:19:46;;;;;;;3.93;2.60;;;-0.60;99.90;;;;;;5048262;28;20321;-68
2024/01/19 08:22:13;;;;;;;5.50;2.60;;;-0.60;99.90;;;;;;5048573;28;20826;-68
2024/01/19 08:24:40;;;;;;;7.53;3.17;;;-0.50;99.90;;;;;;5048434;28;20250;-68
2024/01/19 08:27:09;;;;;;;3.33;2.93;;;-0.50;99.90;;;;;;5048739;28;20529;-68
2024/01/19 08:29:36;;;;;;;2.50;2.30;;;-0.50;99.90;;;;;;5042858;28;20291;-68
2024/01/19 08:32:03;;;;;;;3.53;2.80;;;-0.40;99.90;;;;;;5048882;28;20250;-68
2024/01/19 08:34:29;;;;;;;3.67;3.37;;;-0.40;99.90;;;;;;5048060;28;20654;-67
2024/01/19 08:36:56;;;;;;;3.10;2.80;;;-0.40;99.90;;;;;;5048833;28;20707;-68
2024/01/19 08:39:23;;;;;;;3.17;2.50;;;-0.40;99.90;;;;;;5045933;28;20809;-68
2024/01/19 08:41:50;;;;;;;4.17;3.00;;;-0.30;99.90;;;;;;5047686;28;20760;-68
2024/01/19 08:44:18;;;;;;;6.33;3.00;;;-0.30;99.90;;;;;;5048525;28;20235;-68
2024/01/19 08:46:45;;;;;;;3.73;3.30;;;-0.20;99.90;;;;;;5046273;28;20204;-69
2024/01/19 08:49:13;;;;;;;3.40;3.10;;;-0.20;99.90;;;;;;5048253;28;20285;-68
2024/01/19 08:51:40;;;;;;;3.97;3.10;;;-0.10;99.90;;;;;;5048047;28;20229;-68
2024/01/19 08:54:07;;;;;;;3.67;3.13;;;-0.10;99.90;;;;;;5048524;28;20231;-68
2024/01/19 08:56:34;;;;;;;3.57;3.13;;;-0.10;99.90;;;;;;5048334;28;20312;-68
2024/01/19 08:59:01;;;;;;;4.73;3.37;;;-0.10;99.90;;;;;;5047913;28;20653;-68
2024/01/19 09:01:31;;;;;;;5.37;3.53;;;0.00;99.90;;;;;;5048418;28;20196;-68
2024/01/19 09:03:58;;;;;;;4.10;3.00;;;0.10;99.90;;;;;;5047589;28;20231;-68
2024/01/19 09:06:25;;;;;;;7.03;3.90;;;0.10;99.90;;;;;;5048250;28;20200;-68
2024/01/19 09:08:52;;;;;;;4.43;3.43;;;0.20;99.90;;;;;;5048317;28;20231;-68
2024/01/19 09:11:19;;;;;;;4.83;3.37;;;0.20;99.90;;;;;;5048015;28;20299;-68
2024/01/19 09:13:46;;;;;;;3.63;3.27;;;0.30;99.90;;;;;;5048145;28;20291;-68
2024/01/19 09:16:13;;;;;;;5.67;3.80;;;0.30;99.90;;;;;;5047613;28;20722;-68
2024/01/19 09:18:42;;;;;;;3.43;3.13;;;0.30;99.90;;;;;;5047906;28;20215;-68
2024/01/19 09:21:16;;;;;;;6.40;3.80;;;0.30;99.90;;;;;;5047757;28;20291;-68
2024/01/19 09:23:42;;;;;;;4.67;3.47;;;0.40;99.90;;;;;;5044606;28;20208;-68
2024/01/19 09:26:17;;;;;;;4.03;3.63;;;0.50;99.90;;;;;;5041382;28;20303;-68
2024/01/19 09:28:44;;;;;;;4.97;3.47;;;0.40;99.90;;;;;;5047601;28;20705;-68
2024/01/19 09:31:11;;;;;;;4.53;3.33;;;0.50;99.90;;;;;;5047406;28;20295;-68
2024/01/19 09:33:38;;;;;;;4.73;3.70;;;0.60;99.90;;;;;;5048145;28;20200;-68
2024/01/19 09:36:07;;;;;;;5.20;3.60;;;0.70;99.90;;;;;;5047559;28;20254;-68
2024/01/19 09:38:35;;;;;;;4.20;3.33;;;0.70;99.90;;;;;;5047861;28;20319;-68
2024/01/19 09:41:08;;;;;;;3.87;3.47;;;0.80;99.90;;;;;;5044143;28;20641;-68
2024/01/19 09:43:36;;;;;;;4.37;3.73;;;0.80;99.90;;;;;;5048042;28;20288;-68
2024/01/19 09:46:06;;;;;;;3.47;3.17;;;0.90;99.90;;;;;;5047080;28;20250;-69
2024/01/19 09:48:41;;;;;;;3.60;3.30;;;1.00;99.90;;;;;;5043212;28;20746;-68
2024/01/19 09:51:10;;;;;;;5.50;3.57;;;1.00;99.90;;;;;;5045361;28;20624;-68
2024/01/19 09:53:48;;;;;;;5.20;3.60;;;1.00;99.90;;;;;;5047109;28;20250;-68
2024/01/19 09:56:15;;;;;;;5.07;3.70;;;1.20;99.90;;;;;;5038116;28;20204;-68
2024/01/19 09:58:45;;;;;;;5.47;3.80;;;1.20;99.90;;;;;;5047388;28;20311;-68
2024/01/19 10:01:12;;;;;;;4.03;3.43;;;1.20;99.90;;;;;;5046735;28;20197;-68
2024/01/19 10:03:39;;;;;;;5.83;3.70;;;1.30;99.90;;;;;;5046797;28;20314;-68
2024/01/19 10:06:06;;;;;;;7.20;3.50;;;1.30;99.90;;;;;;5046834;28;20193;-68
2024/01/19 10:08:36;;;;;;;3.70;3.40;;;1.30;99.90;;;;;;5047015;28;20470;-68
2024/01/19 10:11:06;;;;;;;4.50;3.90;;;1.40;99.90;;;;;;5046780;28;20243;-68
2024/01/19 10:13:33;;;;;;;5.47;3.87;;;1.50;99.90;;;;;;5046975;28;20230;-68
2024/01/19 10:16:00;;;;;;;4.53;4.07;;;1.50;99.90;;;;;;5047371;28;20224;-68
2024/01/19 10:18:27;;;;;;;4.13;3.70;;;1.50;99.90;;;;;;5046485;28;20223;-68
2024/01/19 10:20:54;;;;;;;7.27;3.83;;;1.50;99.90;;;;;;5046234;28;20258;-68
2024/01/19 10:23:23;;;;;;;5.40;3.87;;;1.60;99.90;;;;;;5046892;28;20613;-69
2024/01/19 10:25:51;;;;;;;4.27;3.87;;;1.70;99.90;;;;;;5046719;28;20258;-69
2024/01/19 10:28:33;;;;;;;4.83;3.60;;;1.70;99.90;;;;;;5046618;28;20208;-68
2024/01/19 10:31:22;;;;;;;4.47;3.93;;;1.70;99.90;;;;;;5046368;28;20193;-69
2024/01/19 10:33:50;;;;;;;4.90;3.50;;;1.80;99.90;;;;;;5040932;28;20224;-68
2024/01/19 10:36:17;;;;;;;4.90;4.30;;;1.80;99.90;;;;;;5046263;28;20302;-68
2024/01/19 10:38:44;;;;;;;5.30;3.93;;;1.90;99.90;;;;;;5043128;28;20295;-68
2024/01/19 10:41:16;;;;;;;3.77;3.40;;;2.00;99.90;;;;;;5046113;28;20207;-68
2024/01/19 10:43:43;;;;;;;3.93;3.43;;;2.00;99.90;;;;;;5046239;28;20283;-69
2024/01/19 10:46:21;;;;;;;6.73;3.67;;;2.10;99.90;;;;;;5046364;28;20287;-68
2024/01/19 10:48:50;;;;;;;5.30;3.73;;;2.20;99.90;;;;;;5041351;28;20204;-68
2024/01/19 10:51:19;;;;;;;3.80;3.50;;;2.20;99.90;;;;;;5046178;28;20235;-68
2024/01/19 10:53:47;;;;;;;4.23;3.83;;;2.30;99.90;;;;;;5043628;28;20210;-68
2024/01/19 10:56:20;;;;;;;4.77;4.00;;;2.40;99.90;;;;;;5046087;28;20295;-69
2024/01/19 10:58:47;;;;;;;3.70;3.30;;;2.50;99.90;;;;;;5046291;28;20212;-68
2024/01/19 11:01:15;;;;;;;4.23;3.83;;;2.60;99.90;;;;;;5045437;28;20821;-68
2024/01/19 11:03:43;;;;;;;4.63;3.70;;;2.60;99.90;;;;;;5045292;28;20223;-68
2024/01/19 11:06:10;;;;;;;4.70;3.70;;;2.60;99.90;;;;;;5045911;28;20193;-68
2024/01/19 11:08:37;;;;;;;7.40;3.07;;;2.70;99.90;;;;;;5045848;28;20261;-69
2024/01/19 11:11:06;;;;;;;6.47;3.90;;;2.70;99.90;;;;;;5043095;28;20287;-68
2024/01/19 11:13:37;;;;;;;3.67;3.20;;;2.80;99.90;;;;;;5045574;28;20786;-69
2024/01/19 11:16:09;;;;;;;5.63;3.37;;;2.90;99.90;;;;;;5045808;28;20693;-68
2024/01/19 11:18:36;;;;;;;4.93;3.10;;;2.90;99.90;;;;;;5042468;28;20238;-68
2024/01/19 11:21:03;;;;;;;4.27;3.33;;;2.90;99.90;;;;;;5045670;28;20289;-69
2024/01/19 11:23:30;;;;;;;3.93;3.53;;;2.80;99.90;;;;;;5045145;28;20287;-68
2024/01/19 11:26:07;;;;;;;6.70;3.37;;;2.70;99.90;;;;;;5042775;28;20295;-68
2024/01/19 11:28:47;;;;;;;3.10;2.80;;;2.70;99.90;;;;;;5044303;28;20192;-68
2024/01/19 11:31:16;;;;;;;2.83;2.47;;;2.90;99.90;;;;;;5045477;28;20195;-68
2024/01/19 11:33:43;;;;;;;4.43;3.33;;;2.90;99.90;;;;;;5045644;28;20258;-69
2024/01/19 11:36:10;;;;;;;5.87;3.20;;;3.00;99.90;;;;;;5045257;28;20291;-68
2024/01/19 11:38:48;;;;;;;3.87;3.00;;;3.20;99.90;;;;;;5045436;28;20335;-68
2024/01/19 11:41:48;;;;;;;6.70;3.30;;;3.30;99.90;;;;;;5044281;28;20253;-69
2024/01/19 11:44:48;;;;;;;3.67;2.50;;;3.40;99.90;;;;;;5039343;28;20208;-68
2024/01/19 11:47:43;;;;;;;3.13;2.87;;;3.40;99.90;;;;;;5043592;28;20772;-68
2024/01/19 11:50:12;;;;;;;5.27;2.80;;;3.30;99.90;;;;;;5045321;28;20200;-69
2024/01/19 11:52:44;;;;;;;7.93;3.00;;;3.40;99.90;;;;;;5045272;28;20216;-69
2024/01/19 11:55:36;;;;;;;6.10;3.00;;;3.40;99.90;;;;;;5045296;28;20295;-69
2024/01/19 11:58:29;;;;;;;4.93;2.83;;;3.50;99.90;;;;;;5045042;28;20608;-69
2024/01/19 12:00:58;;;;;;;2.93;2.70;;;3.40;99.90;;;;;;5045241;28;20222;-69
2024/01/19 12:03:25;;;;;;;2.90;2.57;;;3.40;99.90;;;;;;5044860;28;20294;-69
2024/01/19 12:05:57;;;;;;;4.10;2.57;;;3.40;99.90;;;;;;5045166;28;20200;-69
2024/01/19 12:08:24;;;;;;;5.60;2.60;;;3.50;99.90;;;;;;5045560;28;20212;-69
2024/01/19 12:11:02;;;;;;;2.90;2.53;;;3.40;99.90;;;;;;5040886;28;20719;-69
2024/01/19 12:13:29;;;;;;;5.10;2.60;;;3.40;99.90;;;;;;5030360;28;20258;-69
2024/01/19 12:15:58;;;;;;;2.33;2.13;;;3.50;99.90;;;;;;5044960;28;20208;-69
2024/01/19 12:18:25;;;;;;;4.43;2.47;;;3.60;99.90;;;;;;5045063;28;20789;-69
2024/01/19 12:20:54;;;;;;;3.63;2.57;;;3.70;99.90;;;;;;5044969;28;20307;-69
2024/01/19 12:23:21;;;;;;;4.13;3.03;;;3.70;99.90;;;;;;5044914;28;20678;-69
2024/01/19 12:25:48;;;;;;;4.70;2.53;;;3.70;99.90;;;;;;5044656;28;20760;-69
2024/01/19 12:28:16;;;;;;;6.03;3.10;;;3.60;99.90;;;;;;5044819;28;20207;-70
2024/01/19 12:30:44;;;;;;;4.77;2.63;;;3.50;99.90;;;;;;5044410;28;20236;-69
2024/01/19 12:33:18;;;;;;;4.10;2.60;;;3.50;99.90;;;;;;5044739;28;20557;-69
2024/01/19 12:35:46;;;;;;;3.63;2.77;;;3.50;99.90;;;;;;5045221;28;20204;-69
2024/01/19 12:38:15;;;;;;;4.97;2.67;;;3.50;99.90;;;;;;5043849;28;20242;-72
2024/01/19 12:40:44;;;;;;;4.60;2.50;;;3.40;99.90;;;;;;5044717;28;20204;-69
2024/01/19 12:43:12;;;;;;;5.63;2.50;;;3.50;99.90;;;;;;5044185;28;20196;-69
2024/01/19 12:45:39;;;;;;;4.27;3.03;;;3.50;99.90;;;;;;5044765;28;20209;-69
2024/01/19 12:48:10;;;;;;;3.93;2.60;;;3.60;99.90;;;;;;5045052;28;20211;-69
2024/01/19 12:50:38;;;;;;;4.07;2.80;;;3.60;99.90;;;;;;5044812;28;20283;-69
2024/01/19 12:53:05;;;;;;;3.77;2.63;;;3.60;99.90;;;;;;5044387;28;20929;-70
2024/01/19 12:55:34;;;;;;;4.13;2.77;;;3.60;99.90;;;;;;5044784;28;20212;-70